Latest Weather Observations for Roseworthy

IDS60901

Issued at 1:31 pm CDT Wednesday 29 January 2020 (issued every 10 minutes, with the page automatically refreshed every 10 minutes)

About weather observations | Map of Adelaide area stations | Latest observations for Adelaide area | Other Formats
Station Details ID: 023122 Name: ROSEWORTHY AWS Lat: -34.51 Lon: 138.68 Height: 65.0 m
Data from the previous 72 hours. | See also: Recent months at Roseworthy
Date/Time
CDT
Temp
°C
App
Temp
°C
Dew
Point
°C
Rel
Hum
%
Delta-T
°C
Wind Press
QNH
hPa
Press
MSL
hPa
Rain since
9am
mm
Dir  Spd
km/h
Gust
km/h
Spd
kts
Gust
kts
29/01:30pm 37.5 32.0 2.1 11 18.4 NNE 20 37 11 20 1013.1 1012.9 0.0
29/01:00pm 37.1 32.0 3.0 12 17.9 NE 19 35 10 19 1013.6 1013.3 0.0
29/12:30pm 36.2 29.8 3.4 13 17.3 NE 26 35 14 19 1014.2 1013.9 0.0
29/12:00pm 35.5 29.2 5.8 16 16.2 NE 28 41 15 22 1014.6 1014.3 0.0
29/11:30am 35.3 29.0 8.9 20 15.1 NE 32 46 17 25 1014.9 1014.6 0.0
29/11:00am 33.1 26.0 7.9 21 14.0 NE 35 44 19 24 1015.3 1015.0 0.0
29/10:30am 32.0 25.7 8.9 24 13.0 NE 32 39 17 21 1015.3 1015.0 0.0
29/10:00am 30.2 24.8 8.0 25 12.2 ENE 26 35 14 19 1015.5 1015.2 0.0
29/09:30am 28.3 23.4 8.6 29 10.8 ENE 24 32 13 17 1015.8 1015.5 0.0
29/09:00am 26.6 22.4 8.1 31 10.0 E 20 26 11 14 1016.0 1015.7 0.0
29/08:30am 24.9 20.0 7.1 32 9.3 E 22 30 12 16 1015.9 1015.6 0.0
29/08:00am 23.6 18.7 6.8 34 8.7 ENE 22 30 12 16 1015.6 1015.3 0.0
29/07:30am 21.3 16.0 5.2 35 8.0 ENE 22 30 12 16 1015.2 1014.9 0.0
29/07:00am 19.2 14.4 4.6 38 7.0 ENE 19 28 10 15 1015.0 1014.7 0.0
29/06:30am 17.9 13.9 4.8 42 6.3 E 15 24 8 13 1015.0 1014.7 0.0
29/06:00am 15.5 11.3 3.6 45 5.5 ENE 15 17 8 9 1014.9 1014.6 0.0
29/05:30am 16.9 14.7 5.5 47 5.5 NNE 6 9 3 5 1015.0 1014.7 0.0
29/05:00am 13.2 10.4 2.1 47 4.8 ESE 6 7 3 4 1014.9 1014.6 0.0
29/04:30am 16.9 14.0 4.6 44 5.8 E 9 9 5 5 1014.9 1014.6 0.0
29/04:00am 16.5 14.0 4.5 45 5.7 ESE 7 9 4 5 1014.8 1014.5 0.0
29/03:30am 13.6 10.4 2.8 48 4.8 ENE 9 11 5 6 1014.8 1014.5 0.0
29/03:00am 15.6 12.1 3.4 44 5.6 E 11 13 6 7 1015.1 1014.8 0.0
29/02:30am 16.3 14.1 5.3 48 5.3 ESE 6 7 3 4 1015.3 1015.0 0.0
29/02:00am 16.9 14.4 4.9 45 5.7 NE 7 9 4 5 1015.4 1015.1 0.0
29/01:30am 16.0 14.6 5.3 49 5.1 E 2 9 1 5 1015.5 1015.2 0.0
29/01:00am 16.1 13.2 4.8 47 5.3 E 9 11 5 6 1015.6 1015.3 0.0
29/12:30am 16.2 13.6 3.3 42 5.9 SE 6 9 3 5 1015.7 1015.4 0.0
29/12:00am 20.5 17.7 6.8 41 7.0 ESE 11 15 6 8 1015.6 1015.3 0.0
 
Date/Time
CDT
Temp
°C
App
Temp
°C
Dew
Point
°C
Rel
Hum
%
Delta-T
°C
Wind Press
QNH
hPa
Press
MSL
hPa
Rain since
9am
mm
Dir  Spd
km/h
Gust
km/h
Spd
kts
Gust
kts
28/11:30pm 19.2 16.0 4.9 39 6.9 SE 11 11 6 6 1015.5 1015.2 0.0
28/11:00pm 17.0 14.9 6.5 50 5.2 E 7 9 4 5 1015.5 1015.2 0.0
28/10:30pm 17.6 15.0 6.2 47 5.6 NE 9 11 5 6 1015.5 1015.2 0.0
28/10:00pm 18.7 17.4 7.5 48 5.7 NE 4 6 2 3 1015.5 1015.2 0.0
28/09:30pm 22.6 21.2 9.7 44 7.0 S 7 9 4 5 1015.1 1014.8 0.0
28/09:00pm 23.6 21.9 9.9 42 7.5 SSW 9 13 5 7 1014.8 1014.5 0.0
28/08:30pm 25.1 23.3 10.9 41 8.0 SSW 11 15 6 8 1014.5 1014.2 0.0
28/08:00pm 26.4 23.0 10.5 37 8.9 SSW 19 24 10 13 1014.3 1014.0 0.0
28/07:30pm 28.0 23.9 8.8 30 10.6 SSW 20 26 11 14 1014.2 1013.9 0.0
28/07:00pm 28.5 24.5 9.2 30 10.7 SSW 20 26 11 14 1013.9 1013.6 0.0
28/06:30pm 29.3 25.4 10.9 32 10.5 SW 22 30 12 16 1013.8 1013.5 0.0
28/06:00pm 30.0 25.1 10.0 29 11.3 SW 26 33 14 18 1013.7 1013.4 0.0
28/05:30pm 31.8 26.5 6.8 21 13.6 SSW 24 32 13 17 1013.7 1013.4 0.0
28/05:00pm 31.7 27.0 6.0 20 13.8 SW 20 26 11 14 1013.7 1013.4 0.0
28/04:30pm 32.2 26.9 3.2 16 14.9 SW 20 26 11 14 1013.9 1013.6 0.0
28/04:00pm 31.6 26.4 2.7 16 14.6 SSW 19 26 10 14 1014.2 1013.9 0.0
28/03:30pm 31.1 25.7 2.3 16 14.4 SW 20 26 11 14 1014.4 1014.1 0.0
28/03:00pm 31.5 26.5 3.5 17 14.4 SW 19 28 10 15 1014.5 1014.2 0.0
28/02:30pm 31.0 27.2 3.9 18 13.9 SW 13 20 7 11 1014.8 1014.5 0.0
28/02:00pm 30.2 26.7 5.5 21 13.0 SW 13 20 7 11 1015.2 1014.9 0.0
28/01:30pm 29.3 26.4 6.7 24 12.1 SSW 11 19 6 10 1015.6 1015.3 0.0
28/01:00pm 29.0 25.2 5.8 23 12.2 SSW 15 20 8 11 1015.9 1015.6 0.0
28/12:30pm 28.3 25.5 8.6 29 10.8 SSW 13 19 7 10 1016.0 1015.7 0.0
28/12:00pm 27.1 24.6 8.0 30 10.3 S 11 17 6 9 1016.4 1016.1 0.0
28/11:30am 25.8 24.1 8.3 33 9.4 S 7 15 4 8 1016.4 1016.1 0.0
28/11:00am 26.1 25.0 10.7 38 8.7 W 7 13 4 7 1016.6 1016.3 0.0
28/10:30am 24.1 23.1 11.1 44 7.3 SE 7 15 4 8 1016.9 1016.6 0.0
28/10:00am 23.0 22.0 11.1 47 6.6 S 7 13 4 7 1017.2 1016.9 0.0
28/09:30am 21.8 20.9 10.6 49 6.1 SSE 6 13 3 7 1017.0 1016.7 0.0
28/09:00am 21.0 19.8 10.2 50 5.9 ESE 7 11 4 6 1016.9 1016.6 0.0
28/08:30am 19.4 17.2 10.7 57 4.7 ENE 13 15 7 8 1016.6 1016.3 0.0
28/08:00am 16.6 14.7 10.5 67 3.2 SE 11 15 6 8 1016.7 1016.4 0.0
28/07:30am 14.8 13.1 10.0 73 2.5 ESE 9 11 5 6 1016.1 1015.8 0.0
28/07:00am 13.6 11.6 10.0 79 1.9 E 11 13 6 7 1015.5 1015.2 0.0
28/06:30am 12.7 11.0 9.9 83 1.4 ENE 9 15 5 8 1015.4 1015.1 0.0
28/06:00am 12.0 9.8 9.4 84 1.3 ENE 11 13 6 7 1015.4 1015.1 0.0
28/05:30am 11.8 9.4 8.6 81 1.6 E 11 15 6 8 1015.5 1015.2 0.0
28/05:00am 13.6 10.8 10.0 79 1.9 E 15 17 8 9 1015.3 1015.0 0.0
28/04:30am 13.0 11.2 9.4 79 1.8 ESE 9 11 5 6 1015.3 1015.0 0.0
28/04:00am 12.8 11.0 9.6 81 1.6 E 9 11 5 6 1015.4 1015.1 0.0
28/03:30am 13.4 11.7 10.0 80 1.8 ENE 9 11 5 6 1015.5 1015.2 0.0
28/03:00am 13.3 11.3 10.1 81 1.7 ENE 11 13 6 7 1015.5 1015.2 0.0
28/02:30am 13.0 10.4 9.4 79 1.8 ENE 13 17 7 9 1015.7 1015.4 0.0
28/02:00am 13.1 10.9 9.2 77 2.0 ENE 11 13 6 7 1016.0 1015.7 0.0
28/01:30am 14.0 12.2 9.4 74 2.4 E 9 11 5 6 1016.2 1015.9 0.0
28/01:00am 14.6 12.5 9.6 72 2.6 E 11 13 6 7 1016.0 1015.7 0.0
28/12:30am 15.6 14.1 10.4 71 2.7 E 9 11 5 6 1016.1 1015.8 0.0
28/12:00am 17.1 15.8 11.4 69 3.1 ESE 9 11 5 6 1015.9 1015.6 0.0
 
Date/Time
CDT
Temp
°C
App
Temp
°C
Dew
Point
°C
Rel
Hum
%
Delta-T
°C
Wind Press
QNH
hPa
Press
MSL
hPa
Rain since
9am
mm
Dir  Spd
km/h
Gust
km/h
Spd
kts
Gust
kts
27/11:30pm 18.1 15.8 11.7 66 3.5 SE 15 20 8 11 1015.9 1015.6 0.0
27/11:00pm 18.6 16.3 11.9 65 3.7 SE 15 20 8 11 1015.8 1015.5 0.0
27/10:30pm 19.0 17.2 12.0 64 3.9 SE 13 17 7 9 1015.8 1015.5 0.0
27/10:00pm 18.3 17.2 11.8 66 3.6 E 9 11 5 6 1015.7 1015.4 0.0
27/09:30pm 18.0 17.5 12.0 68 3.3 NE 6 9 3 5 1015.4 1015.1 0.0
27/09:00pm 19.4 20.3 12.9 66 3.7 CALM 0 0 0 0 1015.0 1014.7 0.0
27/08:30pm 21.5 20.5 14.6 65 4.1 WSW 13 17 7 9 1014.7 1014.4 0.0
27/08:00pm 22.7 20.9 14.5 60 4.8 WSW 17 22 9 12 1014.4 1014.1 0.0
27/07:30pm 23.7 21.4 14.7 57 5.4 WSW 20 28 11 15 1014.1 1013.8 0.0
27/07:00pm 24.5 21.9 13.1 49 6.6 SW 19 26 10 14 1013.7 1013.4 0.0
27/06:30pm 25.1 22.4 13.6 49 6.8 SW 20 28 11 15 1013.6 1013.3 0.0
27/06:00pm 25.9 23.1 12.7 44 7.7 WSW 19 26 10 14 1013.7 1013.4 0.0
27/05:30pm 26.6 24.4 13.3 43 7.8 SW 17 24 9 13 1013.8 1013.5 0.0
27/05:00pm 25.9 23.3 13.7 47 7.2 SW 20 28 11 15 1014.0 1013.7 0.0
27/04:30pm 26.2 22.3 14.3 48 7.1 SW 28 44 15 24 1014.2 1013.9 0.0
27/04:00pm 28.1 25.2 12.8 38 9.0 SW 20 33 11 18 1013.9 1013.6 0.0
27/03:30pm 27.3 25.0 14.0 44 7.9 SW 19 24 10 13 1014.0 1013.7 0.0
27/03:00pm 27.1 24.2 14.1 44 7.8 SW 22 32 12 17 1014.3 1014.0 0.0
27/02:30pm 26.0 22.9 14.5 49 6.9 SW 24 30 13 16 1014.6 1014.3 0.0
27/02:00pm 26.7 24.1 14.8 48 7.2 SW 22 33 12 18 1015.0 1014.7 0.0
27/01:30pm 27.6 25.9 14.6 45 7.8 WSW 17 28 9 15 1015.1 1014.8 0.0
27/01:00pm 26.5 26.0 14.9 49 7.0 SW 11 19 6 10 1015.2 1014.9 0.0
27/12:30pm 25.5 24.6 15.8 55 5.9 SSW 15 24 8 13 1015.6 1015.3 0.0
27/12:00pm 25.1 23.2 15.7 56 5.7 SW 20 30 11 16 1015.7 1015.4 0.0
27/11:30am 25.0 24.1 14.8 53 6.1 SSW 13 22 7 12 1015.8 1015.5 0.0
27/11:00am 25.1 25.0 14.9 53 6.1 S 9 20 5 11 1015.9 1015.6 0.0
27/10:30am 24.5 24.8 14.6 54 5.9 SE 6 13 3 7 1015.6 1015.3 0.0
27/10:00am 22.9 22.3 14.7 60 4.9 ENE 11 17 6 9 1015.7 1015.4 0.0
27/09:30am 21.8 22.0 14.7 64 4.2 ESE 7 13 4 7 1016.2 1015.9 0.0
27/09:00am 20.7 20.2 14.8 69 3.5 E 11 15 6 8 1015.9 1015.6 0.0
27/08:30am 18.9 18.3 14.6 76 2.5 E 11 15 6 8 1015.9 1015.6 0.0
27/08:00am 17.1 17.0 13.8 81 1.9 SE 7 9 4 5 1016.2 1015.9 0.0
27/07:30am 15.8 15.6 13.6 87 1.2 E 7 9 4 5 1015.8 1015.5 0.0
27/07:00am 14.2 13.0 12.9 92 0.7 E 11 15 6 8 1015.5 1015.2 0.0
27/06:30am 13.4 11.7 12.5 94 0.5 ENE 13 17 7 9 1014.9 1014.6 0.0
27/06:00am 13.0 11.7 12.4 96 0.3 ENE 11 13 6 7 1015.0 1014.7 0.0
27/05:30am 12.5 10.5 11.6 94 0.5 NE 13 15 7 8 1014.9 1014.6 0.0
27/05:00am 12.8 10.5 11.9 94 0.5 ENE 15 15 8 8 1014.9 1014.6 0.0
27/04:30am 12.3 11.3 10.9 91 0.7 E 7 9 4 5 1015.2 1014.9 0.0
27/04:00am 13.0 11.7 11.2 89 1.0 ESE 9 11 5 6 1015.2 1014.9 0.0
27/03:30am 14.0 13.4 12.4 90 0.9 E 7 9 4 5 1015.2 1014.9 0.0
27/03:00am 13.4 12.2 11.5 88 1.0 E 9 11 5 6 1015.3 1015.0 0.0
27/02:30am 14.8 13.9 12.5 86 1.3 ESE 9 9 5 5 1015.2 1014.9 0.0
27/02:00am 15.3 14.3 12.4 83 1.6 ESE 9 13 5 7 1015.3 1015.0 0.0
27/01:30am 14.8 13.9 12.5 86 1.3 E 9 11 5 6 1015.5 1015.2 0.0
27/01:00am 16.5 15.8 13.2 81 1.8 ESE 9 11 5 6 1015.6 1015.3 0.0
27/12:30am 17.8 16.6 13.9 78 2.2 SE 13 15 7 8 1015.6 1015.3 0.0
27/12:00am 17.9 16.8 14.2 79 2.1 SE 13 17 7 9 1015.5 1015.2 0.0
 
Date/Time
CDT
Temp
°C
App
Temp
°C
Dew
Point
°C
Rel
Hum
%
Delta-T
°C
Wind Press
QNH
hPa
Press
MSL
hPa
Rain since
9am
mm
Dir  Spd
km/h
Gust
km/h
Spd
kts
Gust
kts
26/11:30pm 16.1 16.0 13.9 87 1.2 E 7 11 4 6 1015.6 1015.3 0.0
26/11:00pm 16.8 17.8 14.4 86 1.4 ENE 2 7 1 4 1015.5 1015.2 0.0
26/10:30pm 18.7 20.2 15.8 83 1.7 S 2 6 1 3 1015.3 1015.0 0.0
26/10:00pm 19.5 20.1 16.7 84 1.7 SSW 9 13 5 7 1015.3 1015.0 0.0
26/09:30pm 20.0 19.8 16.8 82 1.9 SW 13 19 7 10 1015.3 1015.0 0.0
26/09:00pm 20.5 19.9 16.7 79 2.3 SW 15 19 8 10 1015.2 1014.9 0.0
26/08:30pm 21.1 19.8 16.7 76 2.7 SW 19 22 10 12 1015.1 1014.8 0.0
26/08:00pm 22.5 20.6 15.8 66 4.0 SW 20 26 11 14 1014.8 1014.5 0.0
26/07:30pm 23.1 20.7 15.4 62 4.6 SW 22 30 12 16 1014.2 1013.9 0.0
26/07:00pm 24.4 21.4 14.8 55 5.7 SW 24 30 13 16 1014.0 1013.7 0.0
26/06:30pm 25.6 22.7 14.1 49 6.8 SW 22 30 12 16 1013.7 1013.4 0.0
26/06:00pm 26.6 23.1 13.3 43 7.8 SW 24 32 13 17 1013.6 1013.3 0.0
26/05:30pm 27.4 24.0 11.4 37 9.2 SW 20 28 11 15 1013.6 1013.3 0.0
26/05:00pm 27.4 23.8 10.6 35 9.5 SW 20 28 11 15 1013.8 1013.5 0.0
26/04:30pm 28.1 24.4 11.6 36 9.5 WSW 22 28 12 15 1014.0 1013.7 0.0
26/04:00pm 27.8 24.2 13.0 40 8.7 SSW 24 35 13 19 1014.1 1013.8 0.0
26/03:30pm 27.0 23.7 14.1 45 7.7 SSW 24 37 13 20 1014.2 1013.9 0.0
26/03:00pm 27.3 24.1 15.3 48 7.3 SW 26 35 14 19 1014.4 1014.1 0.0
26/02:30pm 27.0 24.7 15.7 50 6.9 SW 22 33 12 18 1014.6 1014.3 0.0
26/02:00pm 26.4 24.6 16.1 53 6.3 SW 20 28 11 15 1014.9 1014.6 0.0

Latest Capital City Observations: Canberra | Sydney | Melbourne | Brisbane | Adelaide | Perth | Hobart | Darwin

Other formats

Comma delimited format used in spreadsheet applications
http://www.bom.gov.au/fwo/IDS60901/IDS60901.95671.axf

JavaScript Object Notation format (JSON) in row-major order
http://www.bom.gov.au/fwo/IDS60901/IDS60901.95671.json

Data quality

Most of these data are generated automatically and are frequently updated. Quality checks on data are not normally performed. It is possible for incorrect values to appear. Refer to information at About Latest Weather Observations and please check the disclaimer before using these data.